createdAt,value
2022-11-07T00:00:14.120Z,7.20
2022-11-07T00:02:59.844Z,7.30
2022-11-07T00:05:50.187Z,7.30
2022-11-07T00:08:35.772Z,7.40
2022-11-07T00:11:21.865Z,7.40
2022-11-07T00:14:07.240Z,7.50
2022-11-07T00:16:52.712Z,7.60
2022-11-07T00:19:38.366Z,7.60
2022-11-07T00:22:24.080Z,7.70
2022-11-07T00:25:09.388Z,7.70
2022-11-07T00:27:54.736Z,7.70
2022-11-07T00:30:39.979Z,7.70
2022-11-07T00:33:27.990Z,7.80
2022-11-07T00:36:24.402Z,7.70
2022-11-07T00:39:11.514Z,7.70
2022-11-07T00:42:01.961Z,7.70
2022-11-07T00:44:47.242Z,7.70
2022-11-07T00:47:32.872Z,7.60
2022-11-07T00:50:18.392Z,7.60
2022-11-07T00:53:03.599Z,7.50
2022-11-07T00:55:49.090Z,7.50
2022-11-07T00:58:35.136Z,7.50
2022-11-07T01:01:23.823Z,7.40
2022-11-07T01:04:31.121Z,7.40
2022-11-07T01:07:19.746Z,7.40
2022-11-07T01:10:06.961Z,7.40
2022-11-07T01:12:52.706Z,7.40
2022-11-07T01:15:40.788Z,7.50
2022-11-07T01:18:26.253Z,7.50
2022-11-07T01:21:16.613Z,7.50
2022-11-07T01:24:05.751Z,7.50
2022-11-07T01:26:51.900Z,7.50
2022-11-07T01:29:37.428Z,7.50
2022-11-07T01:32:22.649Z,7.60
2022-11-07T01:35:08.214Z,7.60
2022-11-07T01:37:55.901Z,7.60
2022-11-07T01:41:01.758Z,7.50
2022-11-07T01:44:02.510Z,7.40
2022-11-07T01:46:49.013Z,7.40
2022-11-07T01:49:37.322Z,7.40
2022-11-07T01:52:36.297Z,7.30
2022-11-07T01:55:29.794Z,7.20
2022-11-07T01:58:15.215Z,7.10
2022-11-07T02:01:05.967Z,7.10
2022-11-07T02:03:53.259Z,7.20
2022-11-07T02:07:11.290Z,7.20
2022-11-07T02:09:56.831Z,7.40
2022-11-07T02:12:46.924Z,7.40
2022-11-07T02:15:35.679Z,7.50
2022-11-07T02:18:22.817Z,7.60
2022-11-07T02:21:40.297Z,7.60
2022-11-07T02:24:38.000Z,7.70
2022-11-07T02:27:29.644Z,7.60
2022-11-07T02:30:21.098Z,7.70
2022-11-07T02:33:19.474Z,7.70
2022-11-07T02:36:05.250Z,7.70
2022-11-07T02:38:57.504Z,7.70
2022-11-07T02:41:48.140Z,7.70
2022-11-07T02:44:34.089Z,7.80
2022-11-07T02:47:19.932Z,7.80
2022-11-07T02:50:09.466Z,7.80
2022-11-07T02:52:54.641Z,7.80
2022-11-07T02:55:40.293Z,7.90
2022-11-07T02:58:27.694Z,7.90
2022-11-07T03:01:14.017Z,7.90
2022-11-07T03:03:59.624Z,7.90
2022-11-07T03:06:44.823Z,7.90
2022-11-07T03:09:30.278Z,8.00
2022-11-07T03:12:15.777Z,8.00
2022-11-07T03:15:04.506Z,8.10
2022-11-07T03:17:50.298Z,8.20
2022-11-07T03:20:35.466Z,8.20
2022-11-07T03:23:23.270Z,8.30
2022-11-07T03:26:08.622Z,8.30
2022-11-07T03:28:53.765Z,8.40
2022-11-07T03:31:41.346Z,8.40
2022-11-07T03:34:26.787Z,8.50
2022-11-07T03:37:11.904Z,8.50
2022-11-07T03:39:59.234Z,8.60
2022-11-07T03:42:46.952Z,8.60
2022-11-07T03:45:32.598Z,8.60
2022-11-07T03:48:18.327Z,8.70
2022-11-07T03:51:06.773Z,8.70
2022-11-07T03:53:52.188Z,8.70
2022-11-07T03:56:38.418Z,8.80
2022-11-07T03:59:24.062Z,8.80
2022-11-07T04:02:11.492Z,8.80
2022-11-07T04:04:57.312Z,8.80
2022-11-07T04:07:43.203Z,8.90
2022-11-07T04:10:28.788Z,8.90
2022-11-07T04:13:32.704Z,8.90
2022-11-07T04:16:37.953Z,9.00
2022-11-07T04:19:26.481Z,9.00
2022-11-07T04:22:12.152Z,8.90
2022-11-07T04:24:57.511Z,8.90
2022-11-07T04:27:42.855Z,8.90
2022-11-07T04:30:30.411Z,9.00
2022-11-07T04:33:15.976Z,9.00
2022-11-07T04:36:01.754Z,9.00
2022-11-07T04:38:51.678Z,9.00
2022-11-07T04:41:36.918Z,9.00
2022-11-07T04:44:22.862Z,9.00
2022-11-07T04:47:08.559Z,9.10
2022-11-07T04:49:53.993Z,9.10
2022-11-07T04:52:39.681Z,9.10
2022-11-07T04:55:30.574Z,9.20
2022-11-07T04:58:15.894Z,9.20
2022-11-07T05:01:02.053Z,9.20
2022-11-07T05:03:48.086Z,9.20
2022-11-07T05:06:37.711Z,9.20
2022-11-07T05:09:23.169Z,9.20
2022-11-07T05:12:09.726Z,9.20
2022-11-07T05:14:54.805Z,9.20
2022-11-07T05:17:43.489Z,9.20
2022-11-07T05:20:35.068Z,9.20
2022-11-07T05:23:22.101Z,9.20
2022-11-07T05:26:07.150Z,9.20
2022-11-07T05:28:54.690Z,9.30
2022-11-07T05:31:42.541Z,9.20
2022-11-07T05:34:32.629Z,9.30
2022-11-07T05:37:17.743Z,9.30
2022-11-07T05:40:05.111Z,9.30
2022-11-07T05:42:50.351Z,9.30
2022-11-07T05:45:41.617Z,9.30
2022-11-07T05:48:30.491Z,9.30
2022-11-07T05:51:17.786Z,9.30
2022-11-07T05:54:03.644Z,9.30
2022-11-07T05:56:51.090Z,9.30
2022-11-07T05:59:41.683Z,9.30
2022-11-07T06:02:29.622Z,9.30
2022-11-07T06:05:15.322Z,9.30
2022-11-07T06:08:00.733Z,9.30
2022-11-07T06:10:46.056Z,9.40
2022-11-07T06:13:31.577Z,9.40
2022-11-07T06:16:19.087Z,9.40
2022-11-07T06:19:04.378Z,9.40
2022-11-07T06:21:51.739Z,9.40
2022-11-07T06:24:37.007Z,9.40
2022-11-07T06:27:23.062Z,9.40
2022-11-07T06:30:08.792Z,9.40
2022-11-07T06:32:59.753Z,9.50
2022-11-07T06:35:45.682Z,9.50
2022-11-07T06:38:31.178Z,9.50
2022-11-07T06:41:18.616Z,9.50
2022-11-07T06:44:04.005Z,9.60
2022-11-07T06:46:49.167Z,9.60
2022-11-07T06:49:36.552Z,9.60
2022-11-07T06:52:22.342Z,9.60
2022-11-07T06:55:10.473Z,9.70
2022-11-07T06:58:07.198Z,9.70
2022-11-07T07:00:52.826Z,9.70
2022-11-07T07:03:39.024Z,9.80
2022-11-07T07:06:24.228Z,9.80
2022-11-07T07:09:09.762Z,9.90
2022-11-07T07:11:55.375Z,9.90
2022-11-07T07:14:40.879Z,9.90
2022-11-07T07:17:26.395Z,9.90
2022-11-07T07:20:11.980Z,9.90
2022-11-07T07:23:02.885Z,10.00
2022-11-07T07:25:52.882Z,10.00
2022-11-07T07:28:40.590Z,10.00
2022-11-07T07:31:30.838Z,10.10
2022-11-07T07:34:16.335Z,10.20
2022-11-07T07:37:04.255Z,10.20
2022-11-07T07:39:52.515Z,10.30
2022-11-07T07:42:43.178Z,10.30
2022-11-07T07:45:28.492Z,10.30
2022-11-07T07:48:16.212Z,10.40
2022-11-07T07:51:01.676Z,10.50
2022-11-07T07:53:49.657Z,10.50
2022-11-07T07:56:34.968Z,10.70
2022-11-07T07:59:23.065Z,10.70
2022-11-07T08:02:11.632Z,10.80
2022-11-07T08:04:57.083Z,10.40
2022-11-07T08:07:50.619Z,10.10
2022-11-07T08:10:41.900Z,9.80
2022-11-07T08:13:28.865Z,9.70
2022-11-07T08:16:14.146Z,9.50
2022-11-07T08:19:01.774Z,9.50
2022-11-07T08:21:47.454Z,9.50
2022-11-07T08:24:32.990Z,9.50
2022-11-07T08:27:18.409Z,9.50
2022-11-07T08:30:07.166Z,9.40
2022-11-07T08:32:52.999Z,9.30
2022-11-07T08:35:42.677Z,9.30
2022-11-07T08:38:33.537Z,9.30
2022-11-07T08:41:22.721Z,9.50
2022-11-07T08:44:09.701Z,9.50
2022-11-07T08:46:55.913Z,9.60
2022-11-07T08:49:41.070Z,9.80
2022-11-07T08:52:31.400Z,10.40
2022-11-07T08:55:17.333Z,10.90
2022-11-07T08:58:06.123Z,11.30
2022-11-07T09:00:51.943Z,11.50
2022-11-07T09:03:50.259Z,11.70
2022-11-07T09:06:40.194Z,11.80
2022-11-07T09:09:25.485Z,11.90
2022-11-07T09:12:10.979Z,12.10
2022-11-07T09:14:59.509Z,12.20
2022-11-07T09:17:47.479Z,12.30
2022-11-07T09:20:34.071Z,12.20
2022-11-07T09:23:19.922Z,12.60
2022-11-07T09:26:07.092Z,12.70
2022-11-07T09:28:57.236Z,12.90
2022-11-07T09:31:47.020Z,12.90
2022-11-07T09:34:34.422Z,12.60
2022-11-07T09:37:21.588Z,12.70
2022-11-07T09:40:19.589Z,12.60
2022-11-07T09:43:28.530Z,12.50
2022-11-07T09:46:19.578Z,12.70
2022-11-07T09:49:28.008Z,13.00
2022-11-07T09:52:36.641Z,13.00
2022-11-07T09:55:49.922Z,13.10
2022-11-07T09:58:45.279Z,12.90
2022-11-07T10:01:33.118Z,12.50
2022-11-07T10:04:26.499Z,12.30
2022-11-07T10:07:29.005Z,12.20
2022-11-07T10:10:31.602Z,12.00
2022-11-07T10:13:45.988Z,12.00
2022-11-07T10:16:47.636Z,11.90
2022-11-07T10:19:42.339Z,11.90
2022-11-07T10:22:36.598Z,11.90
2022-11-07T10:25:28.868Z,11.90
2022-11-07T10:28:19.200Z,12.00
2022-11-07T10:31:07.524Z,12.00
2022-11-07T10:34:02.364Z,12.10
2022-11-07T10:36:47.607Z,12.20
2022-11-07T10:39:33.217Z,12.30
2022-11-07T10:42:25.739Z,12.40
2022-11-07T10:45:14.526Z,12.60
2022-11-07T10:48:07.242Z,12.80
2022-11-07T10:50:56.576Z,12.80
2022-11-07T10:53:45.495Z,12.90
2022-11-07T10:56:31.351Z,13.10
2022-11-07T10:59:34.585Z,13.10
2022-11-07T11:02:29.334Z,13.20
2022-11-07T11:05:46.127Z,13.30
2022-11-07T11:08:37.814Z,13.50
2022-11-07T11:11:34.410Z,13.60
2022-11-07T11:14:21.373Z,13.80
2022-11-07T11:17:22.385Z,13.90
2022-11-07T11:20:23.763Z,14.00
2022-11-07T11:23:20.988Z,14.10
2022-11-07T11:26:09.132Z,14.00
2022-11-07T11:29:03.680Z,13.90
2022-11-07T11:31:55.181Z,13.90
2022-11-07T11:35:19.498Z,14.00
2022-11-07T11:38:16.934Z,13.90
2022-11-07T11:41:10.970Z,13.80
2022-11-07T11:44:20.975Z,13.90
2022-11-07T11:47:28.004Z,14.00
2022-11-07T11:50:29.603Z,14.10
2022-11-07T11:53:22.764Z,14.30
2022-11-07T11:56:08.147Z,14.50
2022-11-07T11:58:53.812Z,14.40
2022-11-07T12:01:53.640Z,14.30
2022-11-07T12:04:52.448Z,14.40
2022-11-07T12:08:12.964Z,14.40
2022-11-07T12:11:48.657Z,14.30
2022-11-07T12:15:14.522Z,14.30
2022-11-07T12:18:24.046Z,14.60
2022-11-07T12:21:48.460Z,14.70
2022-11-07T12:24:57.640Z,14.80
2022-11-07T12:28:30.621Z,14.80
2022-11-07T12:31:42.192Z,14.90
2022-11-07T12:35:04.668Z,14.80
2022-11-07T12:37:58.337Z,14.70
2022-11-07T12:41:10.734Z,14.80
2022-11-07T12:44:29.992Z,15.20
2022-11-07T12:47:47.825Z,15.70
2022-11-07T12:50:45.369Z,16.20
2022-11-07T12:53:59.966Z,16.80
2022-11-07T12:56:48.112Z,16.30
2022-11-07T12:59:36.431Z,15.80
2022-11-07T13:02:24.864Z,15.40
2022-11-07T13:05:31.604Z,15.20
2022-11-07T13:08:23.211Z,15.30
2022-11-07T13:11:35.282Z,15.40
2022-11-07T13:14:37.019Z,15.10
2022-11-07T13:17:27.667Z,14.90
2022-11-07T13:20:24.593Z,14.70
2022-11-07T13:23:16.481Z,14.60
2022-11-07T13:26:25.920Z,14.50
2022-11-07T13:29:36.463Z,14.50
2022-11-07T13:32:22.107Z,14.60
2022-11-07T13:35:10.370Z,14.60
2022-11-07T13:38:16.644Z,14.40
2022-11-07T13:41:07.605Z,14.40
2022-11-07T13:43:55.838Z,14.30
2022-11-07T13:46:51.604Z,14.20
2022-11-07T13:49:47.467Z,14.20
2022-11-07T13:52:45.218Z,14.20
2022-11-07T13:55:41.412Z,14.30
2022-11-07T13:58:30.030Z,14.30
2022-11-07T14:01:15.522Z,14.30
2022-11-07T14:04:21.080Z,14.30
2022-11-07T14:07:09.256Z,14.20
2022-11-07T14:09:59.785Z,14.20
2022-11-07T14:12:45.894Z,14.20
2022-11-07T14:15:33.396Z,14.10
2022-11-07T14:18:21.141Z,14.10
2022-11-07T14:21:27.710Z,14.10
2022-11-07T14:24:32.617Z,14.10
2022-11-07T14:27:19.080Z,14.00
2022-11-07T14:30:05.112Z,14.00
2022-11-07T14:33:02.221Z,13.90
2022-11-07T14:35:50.524Z,13.80
2022-11-07T14:38:44.862Z,13.80
2022-11-07T14:41:30.514Z,13.70
2022-11-07T14:44:28.435Z,13.60
2022-11-07T14:47:23.818Z,13.50
2022-11-07T14:50:18.058Z,13.50
2022-11-07T14:53:16.740Z,13.50
2022-11-07T14:56:06.605Z,13.50
2022-11-07T14:58:52.376Z,13.50
2022-11-07T15:01:37.678Z,13.50
2022-11-07T15:04:35.843Z,13.50
2022-11-07T15:07:23.185Z,13.50
2022-11-07T15:10:25.080Z,13.40
2022-11-07T15:13:25.078Z,13.40
2022-11-07T15:16:19.172Z,13.30
2022-11-07T15:19:07.217Z,13.30
2022-11-07T15:22:03.186Z,13.30
2022-11-07T15:24:54.148Z,13.30
2022-11-07T15:27:44.217Z,13.30
2022-11-07T15:30:34.459Z,13.20
2022-11-07T15:33:20.416Z,13.20
2022-11-07T15:36:06.306Z,13.20
2022-11-07T15:38:56.286Z,13.10
2022-11-07T15:41:43.866Z,13.10
2022-11-07T15:44:29.676Z,13.10
2022-11-07T15:47:19.413Z,13.10
2022-11-07T15:50:16.109Z,13.10
2022-11-07T15:53:02.410Z,13.10
2022-11-07T15:55:49.022Z,13.10
2022-11-07T15:58:36.968Z,13.10
2022-11-07T16:01:23.008Z,13.10
2022-11-07T16:04:09.069Z,13.00
2022-11-07T16:06:54.658Z,13.10
2022-11-07T16:09:40.262Z,12.90
2022-11-07T16:12:25.768Z,12.90
2022-11-07T16:15:22.189Z,12.90
2022-11-07T16:18:16.140Z,12.90
2022-11-07T16:21:01.956Z,13.00
2022-11-07T16:23:50.694Z,13.00
2022-11-07T16:26:39.118Z,12.90
2022-11-07T16:29:24.844Z,12.90
2022-11-07T16:32:17.611Z,12.80
2022-11-07T16:35:03.711Z,12.60
2022-11-07T16:37:51.145Z,12.40
2022-11-07T16:40:39.364Z,12.30
2022-11-07T16:43:26.703Z,12.10
2022-11-07T16:46:19.848Z,11.90
2022-11-07T16:49:15.847Z,11.80
2022-11-07T16:52:02.328Z,11.60
2022-11-07T16:54:47.780Z,11.50
2022-11-07T16:57:38.319Z,11.50
2022-11-07T17:00:26.221Z,11.50
2022-11-07T17:03:14.779Z,11.50
2022-11-07T17:06:02.655Z,11.40
2022-11-07T17:08:49.170Z,11.40
2022-11-07T17:11:34.939Z,11.40
2022-11-07T17:14:20.523Z,11.40
2022-11-07T17:17:06.419Z,11.40
2022-11-07T17:19:54.488Z,11.50
2022-11-07T17:22:39.941Z,11.70
2022-11-07T17:25:25.563Z,11.80
2022-11-07T17:28:10.906Z,12.00
2022-11-07T17:30:56.760Z,12.00
2022-11-07T17:33:42.411Z,12.00
2022-11-07T17:36:46.100Z,12.00
2022-11-07T17:39:33.889Z,11.90
2022-11-07T17:42:19.275Z,11.80
2022-11-07T17:45:04.875Z,11.90
2022-11-07T17:47:50.647Z,12.10
2022-11-07T17:50:36.266Z,12.10
2022-11-07T17:53:24.403Z,12.20
2022-11-07T17:56:16.939Z,12.30
2022-11-07T17:59:05.143Z,12.40
2022-11-07T18:01:51.407Z,12.40
2022-11-07T18:04:40.437Z,12.50
2022-11-07T18:07:26.632Z,12.60
2022-11-07T18:10:15.408Z,12.70
2022-11-07T18:13:03.369Z,12.70
2022-11-07T18:15:49.124Z,12.70
2022-11-07T18:18:37.761Z,12.70
2022-11-07T18:21:25.277Z,12.80
2022-11-07T18:24:12.008Z,12.80
2022-11-07T18:27:00.870Z,12.80
2022-11-07T18:29:46.188Z,12.90
2022-11-07T18:32:36.112Z,12.80
2022-11-07T18:35:22.193Z,12.80
2022-11-07T18:38:07.687Z,12.80
2022-11-07T18:41:04.553Z,12.80
2022-11-07T18:43:54.144Z,12.70
2022-11-07T18:46:41.236Z,12.80
2022-11-07T18:49:29.739Z,12.80
2022-11-07T18:52:15.070Z,12.70
2022-11-07T18:55:03.946Z,12.70
2022-11-07T18:57:49.310Z,12.60
2022-11-07T19:00:35.745Z,12.50
2022-11-07T19:03:24.345Z,12.30
2022-11-07T19:06:15.878Z,12.10
2022-11-07T19:09:04.410Z,12.00
2022-11-07T19:11:49.689Z,11.90
2022-11-07T19:14:35.631Z,11.80
2022-11-07T19:17:23.552Z,11.70
2022-11-07T19:20:09.905Z,11.70
2022-11-07T19:23:00.048Z,11.50
2022-11-07T19:25:46.454Z,11.50
2022-11-07T19:28:31.921Z,11.40
2022-11-07T19:31:23.138Z,11.50
2022-11-07T19:34:08.785Z,11.60
2022-11-07T19:36:54.606Z,11.70
2022-11-07T19:39:40.234Z,11.80
2022-11-07T19:42:28.162Z,11.90
2022-11-07T19:45:13.685Z,11.90
2022-11-07T19:47:59.017Z,12.00
2022-11-07T19:50:44.816Z,12.00
2022-11-07T19:53:32.781Z,12.00
2022-11-07T19:56:18.045Z,12.00
2022-11-07T19:59:08.711Z,12.00
2022-11-07T20:02:26.049Z,12.10
2022-11-07T20:05:07.766Z,12.10
2022-11-07T20:07:58.152Z,12.10
2022-11-07T20:10:50.447Z,12.10
2022-11-07T20:13:38.363Z,12.10
2022-11-07T20:16:24.014Z,12.10
2022-11-07T20:19:11.188Z,12.20
2022-11-07T20:21:59.003Z,12.20
2022-11-07T20:24:44.207Z,12.20
2022-11-07T20:27:34.047Z,12.20
2022-11-07T20:30:19.478Z,12.20
2022-11-07T20:33:05.369Z,12.20
2022-11-07T20:36:02.733Z,12.20
2022-11-07T20:38:48.713Z,12.20
2022-11-07T20:41:38.361Z,12.20
2022-11-07T20:44:24.101Z,12.20
2022-11-07T20:47:13.146Z,12.20
2022-11-07T20:49:58.270Z,12.20
2022-11-07T20:52:43.588Z,12.20
2022-11-07T20:55:29.683Z,12.20
2022-11-07T20:58:14.840Z,12.20
2022-11-07T21:01:02.894Z,12.20
2022-11-07T21:03:48.826Z,12.20
2022-11-07T21:06:34.692Z,12.10
2022-11-07T21:09:21.826Z,12.10
2022-11-07T21:12:07.321Z,12.10
2022-11-07T21:14:52.659Z,12.00
2022-11-07T21:17:38.083Z,11.90
2022-11-07T21:20:24.637Z,11.90
2022-11-07T21:23:15.616Z,11.80
2022-11-07T21:26:06.584Z,11.70
2022-11-07T21:28:55.860Z,11.50
2022-11-07T21:31:41.669Z,11.40
2022-11-07T21:34:27.274Z,11.40
2022-11-07T21:37:12.818Z,11.50
2022-11-07T21:40:00.276Z,11.60
2022-11-07T21:42:48.404Z,11.60
2022-11-07T21:45:36.423Z,11.70
2022-11-07T21:48:21.931Z,11.70
2022-11-07T21:51:15.615Z,11.80
2022-11-07T21:54:04.833Z,11.80
2022-11-07T21:56:50.250Z,11.80
2022-11-07T21:59:35.494Z,11.80
2022-11-07T22:02:21.011Z,11.90
2022-11-07T22:05:09.404Z,11.80
2022-11-07T22:07:58.079Z,11.70
2022-11-07T22:10:43.455Z,11.70
2022-11-07T22:13:31.597Z,11.60
2022-11-07T22:16:20.004Z,11.50
2022-11-07T22:19:11.231Z,11.50
2022-11-07T22:21:58.487Z,11.40
2022-11-07T22:24:46.378Z,11.40
2022-11-07T22:27:32.123Z,11.30
2022-11-07T22:30:17.936Z,11.30
2022-11-07T22:33:05.803Z,11.30
2022-11-07T22:35:51.258Z,11.20
2022-11-07T22:38:37.852Z,11.10
2022-11-07T22:41:29.477Z,11.10
2022-11-07T22:44:14.908Z,11.10
2022-11-07T22:47:03.178Z,11.20
2022-11-07T22:49:51.309Z,11.10
2022-11-07T22:52:36.898Z,11.00
2022-11-07T22:55:22.530Z,10.90
2022-11-07T22:58:11.011Z,10.80
2022-11-07T23:00:56.129Z,10.80
2022-11-07T23:03:44.472Z,10.70
2022-11-07T23:06:30.628Z,10.70
2022-11-07T23:09:16.608Z,10.70
2022-11-07T23:12:04.984Z,10.70
2022-11-07T23:14:50.189Z,10.70
2022-11-07T23:17:38.645Z,10.70
2022-11-07T23:20:42.708Z,10.70
2022-11-07T23:23:28.246Z,10.70
2022-11-07T23:26:16.493Z,10.70
2022-11-07T23:29:09.047Z,10.70
2022-11-07T23:31:58.156Z,10.70
2022-11-07T23:34:43.768Z,10.70
2022-11-07T23:37:33.783Z,10.70
2022-11-07T23:40:18.939Z,10.70
2022-11-07T23:43:04.765Z,10.80
2022-11-07T23:46:08.212Z,10.70
2022-11-07T23:49:14.945Z,10.80
2022-11-07T23:52:00.407Z,10.80
2022-11-07T23:55:18.090Z,10.70
2022-11-07T23:58:24.354Z,10.70
